sensor_id;sensor_type;location;lat;lon;timestamp;P1;durP1;ratioP1;P2;durP2;ratioP2
33327;SDS011;19692;52.998;9.116;2023-05-18T00:02:00;12.17;;;3.40;;
33327;SDS011;19692;52.998;9.116;2023-05-18T00:04:31;8.13;;;3.57;;
33327;SDS011;19692;52.998;9.116;2023-05-18T00:06:58;7.33;;;3.17;;
33327;SDS011;19692;52.998;9.116;2023-05-18T00:09:32;12.63;;;4.67;;
33327;SDS011;19692;52.998;9.116;2023-05-18T00:12:00;14.37;;;3.73;;
33327;SDS011;19692;52.998;9.116;2023-05-18T00:14:29;5.47;;;2.97;;
33327;SDS011;19692;52.998;9.116;2023-05-18T00:16:55;9.93;;;3.17;;
33327;SDS011;19692;52.998;9.116;2023-05-18T00:19:22;7.20;;;2.93;;
33327;SDS011;19692;52.998;9.116;2023-05-18T00:21:49;8.03;;;3.27;;
33327;SDS011;19692;52.998;9.116;2023-05-18T00:24:17;8.40;;;3.27;;
33327;SDS011;19692;52.998;9.116;2023-05-18T00:26:43;7.80;;;2.90;;
33327;SDS011;19692;52.998;9.116;2023-05-18T00:29:11;7.90;;;3.00;;
33327;SDS011;19692;52.998;9.116;2023-05-18T00:31:37;6.67;;;2.80;;
33327;SDS011;19692;52.998;9.116;2023-05-18T00:34:07;13.43;;;3.63;;
33327;SDS011;19692;52.998;9.116;2023-05-18T00:36:34;8.97;;;3.37;;
33327;SDS011;19692;52.998;9.116;2023-05-18T00:39:01;8.03;;;3.63;;
33327;SDS011;19692;52.998;9.116;2023-05-18T00:41:28;7.63;;;2.97;;
33327;SDS011;19692;52.998;9.116;2023-05-18T00:43:54;8.23;;;3.10;;
33327;SDS011;19692;52.998;9.116;2023-05-18T00:46:22;10.33;;;3.30;;
33327;SDS011;19692;52.998;9.116;2023-05-18T00:48:50;8.63;;;3.03;;
33327;SDS011;19692;52.998;9.116;2023-05-18T00:51:16;8.00;;;2.83;;
33327;SDS011;19692;52.998;9.116;2023-05-18T00:53:43;4.10;;;2.57;;
33327;SDS011;19692;52.998;9.116;2023-05-18T00:56:11;8.13;;;3.00;;
33327;SDS011;19692;52.998;9.116;2023-05-18T00:58:37;9.27;;;3.57;;
33327;SDS011;19692;52.998;9.116;2023-05-18T01:01:05;7.27;;;3.40;;
33327;SDS011;19692;52.998;9.116;2023-05-18T01:03:31;7.03;;;2.67;;
33327;SDS011;19692;52.998;9.116;2023-05-18T01:05:58;9.47;;;3.07;;
33327;SDS011;19692;52.998;9.116;2023-05-18T01:08:24;6.47;;;2.73;;
33327;SDS011;19692;52.998;9.116;2023-05-18T01:14:36;9.07;;;2.90;;
33327;SDS011;19692;52.998;9.116;2023-05-18T01:17:24;6.93;;;2.70;;
33327;SDS011;19692;52.998;9.116;2023-05-18T01:28:39;9.43;;;2.90;;
33327;SDS011;19692;52.998;9.116;2023-05-18T01:31:08;7.53;;;2.90;;
33327;SDS011;19692;52.998;9.116;2023-05-18T01:33:35;8.33;;;3.23;;
33327;SDS011;19692;52.998;9.116;2023-05-18T01:36:00;9.17;;;3.50;;
33327;SDS011;19692;52.998;9.116;2023-05-18T01:38:26;8.70;;;3.50;;
33327;SDS011;19692;52.998;9.116;2023-05-18T01:43:36;8.70;;;2.80;;
33327;SDS011;19692;52.998;9.116;2023-05-18T01:46:56;12.20;;;2.90;;
33327;SDS011;19692;52.998;9.116;2023-05-18T01:49:09;8.30;;;3.27;;
33327;SDS011;19692;52.998;9.116;2023-05-18T01:51:43;8.67;;;3.20;;
33327;SDS011;19692;52.998;9.116;2023-05-18T01:54:10;7.00;;;3.07;;
33327;SDS011;19692;52.998;9.116;2023-05-18T01:56:40;9.13;;;3.70;;
33327;SDS011;19692;52.998;9.116;2023-05-18T01:59:07;9.73;;;3.20;;
33327;SDS011;19692;52.998;9.116;2023-05-18T02:01:33;13.30;;;3.60;;
33327;SDS011;19692;52.998;9.116;2023-05-18T02:04:00;8.00;;;3.20;;
33327;SDS011;19692;52.998;9.116;2023-05-18T02:06:25;8.47;;;3.27;;
33327;SDS011;19692;52.998;9.116;2023-05-18T02:08:51;7.93;;;3.07;;
33327;SDS011;19692;52.998;9.116;2023-05-18T02:11:17;10.00;;;3.13;;
33327;SDS011;19692;52.998;9.116;2023-05-18T02:13:42;6.00;;;2.37;;
33327;SDS011;19692;52.998;9.116;2023-05-18T02:16:08;8.17;;;3.13;;
33327;SDS011;19692;52.998;9.116;2023-05-18T02:18:35;8.17;;;3.03;;
33327;SDS011;19692;52.998;9.116;2023-05-18T02:21:02;11.37;;;3.20;;
33327;SDS011;19692;52.998;9.116;2023-05-18T02:23:28;7.07;;;3.07;;
33327;SDS011;19692;52.998;9.116;2023-05-18T02:25:55;8.30;;;3.30;;
33327;SDS011;19692;52.998;9.116;2023-05-18T02:28:21;12.33;;;3.60;;
33327;SDS011;19692;52.998;9.116;2023-05-18T02:30:47;9.50;;;3.33;;
33327;SDS011;19692;52.998;9.116;2023-05-18T02:33:13;10.47;;;3.30;;
33327;SDS011;19692;52.998;9.116;2023-05-18T02:35:39;10.80;;;3.27;;
33327;SDS011;19692;52.998;9.116;2023-05-18T02:38:05;7.90;;;3.27;;
33327;SDS011;19692;52.998;9.116;2023-05-18T02:40:31;9.80;;;3.30;;
33327;SDS011;19692;52.998;9.116;2023-05-18T02:42:57;8.27;;;3.87;;
33327;SDS011;19692;52.998;9.116;2023-05-18T02:45:23;8.67;;;3.00;;
33327;SDS011;19692;52.998;9.116;2023-05-18T02:47:48;9.17;;;3.53;;
33327;SDS011;19692;52.998;9.116;2023-05-18T02:50:14;9.27;;;2.97;;
33327;SDS011;19692;52.998;9.116;2023-05-18T02:52:40;6.53;;;2.80;;
33327;SDS011;19692;52.998;9.116;2023-05-18T02:55:09;8.40;;;3.07;;
33327;SDS011;19692;52.998;9.116;2023-05-18T02:57:35;6.27;;;2.50;;
33327;SDS011;19692;52.998;9.116;2023-05-18T03:00:00;5.07;;;3.00;;
33327;SDS011;19692;52.998;9.116;2023-05-18T03:02:26;6.00;;;3.07;;
33327;SDS011;19692;52.998;9.116;2023-05-18T03:04:52;10.43;;;3.20;;
33327;SDS011;19692;52.998;9.116;2023-05-18T03:07:21;7.70;;;3.20;;
33327;SDS011;19692;52.998;9.116;2023-05-18T03:09:47;10.30;;;3.73;;
33327;SDS011;19692;52.998;9.116;2023-05-18T03:12:13;8.80;;;3.13;;
33327;SDS011;19692;52.998;9.116;2023-05-18T03:14:39;9.10;;;3.30;;
33327;SDS011;19692;52.998;9.116;2023-05-18T03:17:05;7.37;;;3.30;;
33327;SDS011;19692;52.998;9.116;2023-05-18T03:19:31;10.77;;;3.50;;
33327;SDS011;19692;52.998;9.116;2023-05-18T03:21:58;6.67;;;3.50;;
33327;SDS011;19692;52.998;9.116;2023-05-18T03:24:24;7.40;;;3.77;;
33327;SDS011;19692;52.998;9.116;2023-05-18T03:26:54;6.87;;;2.87;;
33327;SDS011;19692;52.998;9.116;2023-05-18T03:29:21;13.93;;;3.77;;
33327;SDS011;19692;52.998;9.116;2023-05-18T03:31:47;7.07;;;2.80;;
33327;SDS011;19692;52.998;9.116;2023-05-18T03:34:13;11.87;;;3.60;;
33327;SDS011;19692;52.998;9.116;2023-05-18T03:36:39;9.63;;;3.53;;
33327;SDS011;19692;52.998;9.116;2023-05-18T03:39:06;8.73;;;3.23;;
33327;SDS011;19692;52.998;9.116;2023-05-18T03:41:32;11.30;;;3.17;;
33327;SDS011;19692;52.998;9.116;2023-05-18T03:43:58;11.00;;;3.50;;
33327;SDS011;19692;52.998;9.116;2023-05-18T03:46:24;9.37;;;3.40;;
33327;SDS011;19692;52.998;9.116;2023-05-18T03:48:50;6.73;;;3.07;;
33327;SDS011;19692;52.998;9.116;2023-05-18T03:51:18;10.80;;;3.27;;
33327;SDS011;19692;52.998;9.116;2023-05-18T03:53:44;7.90;;;3.60;;
33327;SDS011;19692;52.998;9.116;2023-05-18T03:56:10;6.67;;;3.00;;
33327;SDS011;19692;52.998;9.116;2023-05-18T03:58:37;10.07;;;3.63;;
33327;SDS011;19692;52.998;9.116;2023-05-18T04:01:03;7.30;;;3.03;;
33327;SDS011;19692;52.998;9.116;2023-05-18T04:03:29;9.13;;;3.63;;
33327;SDS011;19692;52.998;9.116;2023-05-18T04:05:55;8.30;;;3.30;;
33327;SDS011;19692;52.998;9.116;2023-05-18T04:08:21;11.73;;;3.53;;
33327;SDS011;19692;52.998;9.116;2023-05-18T04:10:49;12.07;;;3.23;;
33327;SDS011;19692;52.998;9.116;2023-05-18T04:13:16;10.67;;;3.10;;
33327;SDS011;19692;52.998;9.116;2023-05-18T04:15:42;7.30;;;3.80;;
33327;SDS011;19692;52.998;9.116;2023-05-18T04:18:07;8.43;;;3.20;;
33327;SDS011;19692;52.998;9.116;2023-05-18T04:20:34;7.67;;;3.70;;
33327;SDS011;19692;52.998;9.116;2023-05-18T04:23:02;9.27;;;3.90;;
33327;SDS011;19692;52.998;9.116;2023-05-18T04:25:29;8.37;;;2.90;;
33327;SDS011;19692;52.998;9.116;2023-05-18T04:27:55;8.60;;;3.33;;
33327;SDS011;19692;52.998;9.116;2023-05-18T04:30:21;8.40;;;3.67;;
33327;SDS011;19692;52.998;9.116;2023-05-18T04:32:47;8.90;;;3.13;;
33327;SDS011;19692;52.998;9.116;2023-05-18T04:35:14;11.23;;;3.03;;
33327;SDS011;19692;52.998;9.116;2023-05-18T04:37:40;7.67;;;2.87;;
33327;SDS011;19692;52.998;9.116;2023-05-18T04:40:10;6.50;;;3.03;;
33327;SDS011;19692;52.998;9.116;2023-05-18T04:42:40;6.40;;;2.97;;
33327;SDS011;19692;52.998;9.116;2023-05-18T04:45:17;9.87;;;2.90;;
33327;SDS011;19692;52.998;9.116;2023-05-18T04:47:47;7.57;;;3.10;;
33327;SDS011;19692;52.998;9.116;2023-05-18T04:50:17;9.53;;;3.30;;
33327;SDS011;19692;52.998;9.116;2023-05-18T04:52:44;7.47;;;2.90;;
33327;SDS011;19692;52.998;9.116;2023-05-18T04:55:16;7.03;;;3.23;;
33327;SDS011;19692;52.998;9.116;2023-05-18T04:57:49;11.67;;;2.97;;
33327;SDS011;19692;52.998;9.116;2023-05-18T05:00:18;9.67;;;2.80;;
33327;SDS011;19692;52.998;9.116;2023-05-18T05:02:44;8.57;;;3.00;;
33327;SDS011;19692;52.998;9.116;2023-05-18T05:05:10;7.87;;;3.13;;
33327;SDS011;19692;52.998;9.116;2023-05-18T05:07:36;9.83;;;3.30;;
33327;SDS011;19692;52.998;9.116;2023-05-18T05:10:02;8.97;;;2.97;;
33327;SDS011;19692;52.998;9.116;2023-05-18T05:12:28;10.80;;;4.33;;
33327;SDS011;19692;52.998;9.116;2023-05-18T05:14:53;8.10;;;3.03;;
33327;SDS011;19692;52.998;9.116;2023-05-18T05:17:19;10.27;;;2.77;;
33327;SDS011;19692;52.998;9.116;2023-05-18T05:19:46;9.40;;;2.83;;
33327;SDS011;19692;52.998;9.116;2023-05-18T05:22:12;10.00;;;3.00;;
33327;SDS011;19692;52.998;9.116;2023-05-18T05:24:38;6.40;;;2.70;;
33327;SDS011;19692;52.998;9.116;2023-05-18T05:27:04;8.43;;;3.63;;
33327;SDS011;19692;52.998;9.116;2023-05-18T05:29:30;10.13;;;3.00;;
33327;SDS011;19692;52.998;9.116;2023-05-18T05:31:55;6.93;;;2.83;;
33327;SDS011;19692;52.998;9.116;2023-05-18T05:34:21;11.47;;;2.80;;
33327;SDS011;19692;52.998;9.116;2023-05-18T05:36:47;9.83;;;2.93;;
33327;SDS011;19692;52.998;9.116;2023-05-18T05:39:13;8.03;;;3.20;;
33327;SDS011;19692;52.998;9.116;2023-05-18T05:41:38;7.93;;;3.27;;
33327;SDS011;19692;52.998;9.116;2023-05-18T05:44:04;6.33;;;2.80;;
33327;SDS011;19692;52.998;9.116;2023-05-18T05:46:30;10.93;;;2.90;;
33327;SDS011;19692;52.998;9.116;2023-05-18T05:48:56;8.93;;;2.97;;
33327;SDS011;19692;52.998;9.116;2023-05-18T05:51:22;6.97;;;2.67;;
33327;SDS011;19692;52.998;9.116;2023-05-18T05:53:47;11.33;;;3.07;;
33327;SDS011;19692;52.998;9.116;2023-05-18T05:56:13;8.67;;;3.23;;
33327;SDS011;19692;52.998;9.116;2023-05-18T05:58:39;10.17;;;3.20;;
33327;SDS011;19692;52.998;9.116;2023-05-18T06:01:06;12.17;;;3.20;;
33327;SDS011;19692;52.998;9.116;2023-05-18T06:03:32;7.77;;;3.20;;
33327;SDS011;19692;52.998;9.116;2023-05-18T06:05:58;6.83;;;2.90;;
33327;SDS011;19692;52.998;9.116;2023-05-18T06:08:24;11.77;;;2.70;;
33327;SDS011;19692;52.998;9.116;2023-05-18T06:10:50;10.53;;;2.77;;
33327;SDS011;19692;52.998;9.116;2023-05-18T06:13:16;6.47;;;2.30;;
33327;SDS011;19692;52.998;9.116;2023-05-18T06:15:42;7.67;;;2.80;;
33327;SDS011;19692;52.998;9.116;2023-05-18T06:18:07;14.10;;;3.17;;
33327;SDS011;19692;52.998;9.116;2023-05-18T06:20:33;8.67;;;2.50;;
33327;SDS011;19692;52.998;9.116;2023-05-18T06:22:59;6.73;;;2.70;;
33327;SDS011;19692;52.998;9.116;2023-05-18T06:25:25;5.37;;;2.70;;
33327;SDS011;19692;52.998;9.116;2023-05-18T06:27:50;7.20;;;2.90;;
33327;SDS011;19692;52.998;9.116;2023-05-18T06:30:16;10.13;;;3.07;;
33327;SDS011;19692;52.998;9.116;2023-05-18T06:32:42;8.10;;;3.17;;
33327;SDS011;19692;52.998;9.116;2023-05-18T06:35:08;10.53;;;3.20;;
33327;SDS011;19692;52.998;9.116;2023-05-18T06:37:33;7.23;;;2.83;;
33327;SDS011;19692;52.998;9.116;2023-05-18T06:39:59;10.97;;;3.80;;
33327;SDS011;19692;52.998;9.116;2023-05-18T06:42:25;6.63;;;2.57;;
33327;SDS011;19692;52.998;9.116;2023-05-18T06:44:51;9.27;;;2.90;;
33327;SDS011;19692;52.998;9.116;2023-05-18T06:47:17;10.67;;;2.87;;
33327;SDS011;19692;52.998;9.116;2023-05-18T06:49:43;7.60;;;2.60;;
33327;SDS011;19692;52.998;9.116;2023-05-18T06:52:09;7.50;;;2.83;;
33327;SDS011;19692;52.998;9.116;2023-05-18T06:54:35;8.47;;;2.50;;
33327;SDS011;19692;52.998;9.116;2023-05-18T06:57:01;11.57;;;3.47;;
33327;SDS011;19692;52.998;9.116;2023-05-18T06:59:27;9.67;;;3.00;;
33327;SDS011;19692;52.998;9.116;2023-05-18T07:01:52;5.93;;;2.60;;
33327;SDS011;19692;52.998;9.116;2023-05-18T07:04:18;7.63;;;2.83;;
33327;SDS011;19692;52.998;9.116;2023-05-18T07:06:44;7.47;;;2.80;;
33327;SDS011;19692;52.998;9.116;2023-05-18T07:09:10;7.07;;;2.50;;
33327;SDS011;19692;52.998;9.116;2023-05-18T07:11:36;8.13;;;2.80;;
33327;SDS011;19692;52.998;9.116;2023-05-18T07:14:04;9.20;;;3.10;;
33327;SDS011;19692;52.998;9.116;2023-05-18T07:16:30;10.10;;;2.83;;
33327;SDS011;19692;52.998;9.116;2023-05-18T07:18:56;5.53;;;3.00;;
33327;SDS011;19692;52.998;9.116;2023-05-18T07:21:25;6.93;;;3.07;;
33327;SDS011;19692;52.998;9.116;2023-05-18T07:23:51;8.40;;;2.77;;
33327;SDS011;19692;52.998;9.116;2023-05-18T07:26:17;8.03;;;2.90;;
33327;SDS011;19692;52.998;9.116;2023-05-18T07:28:43;10.83;;;2.83;;
33327;SDS011;19692;52.998;9.116;2023-05-18T07:31:09;12.53;;;3.17;;
33327;SDS011;19692;52.998;9.116;2023-05-18T07:33:35;8.90;;;2.97;;
33327;SDS011;19692;52.998;9.116;2023-05-18T07:36:00;7.90;;;2.90;;
33327;SDS011;19692;52.998;9.116;2023-05-18T07:38:27;6.00;;;3.33;;
33327;SDS011;19692;52.998;9.116;2023-05-18T07:40:52;3.90;;;2.30;;
33327;SDS011;19692;52.998;9.116;2023-05-18T07:43:18;9.90;;;2.93;;
33327;SDS011;19692;52.998;9.116;2023-05-18T07:45:44;9.93;;;2.87;;
33327;SDS011;19692;52.998;9.116;2023-05-18T07:48:09;6.50;;;2.87;;
33327;SDS011;19692;52.998;9.116;2023-05-18T07:50:35;6.43;;;2.40;;
33327;SDS011;19692;52.998;9.116;2023-05-18T07:53:01;7.90;;;3.00;;
33327;SDS011;19692;52.998;9.116;2023-05-18T07:55:27;11.47;;;3.07;;
33327;SDS011;19692;52.998;9.116;2023-05-18T07:57:52;6.30;;;2.53;;
33327;SDS011;19692;52.998;9.116;2023-05-18T08:00:18;7.37;;;2.90;;
33327;SDS011;19692;52.998;9.116;2023-05-18T08:02:44;5.80;;;2.40;;
33327;SDS011;19692;52.998;9.116;2023-05-18T08:05:10;9.17;;;2.80;;
33327;SDS011;19692;52.998;9.116;2023-05-18T08:07:36;7.77;;;2.60;;
33327;SDS011;19692;52.998;9.116;2023-05-18T08:10:02;10.23;;;3.07;;
33327;SDS011;19692;52.998;9.116;2023-05-18T08:12:29;6.23;;;2.70;;
33327;SDS011;19692;52.998;9.116;2023-05-18T08:14:55;7.10;;;2.57;;
33327;SDS011;19692;52.998;9.116;2023-05-18T08:17:21;7.07;;;2.50;;
33327;SDS011;19692;52.998;9.116;2023-05-18T08:19:47;10.47;;;3.50;;
33327;SDS011;19692;52.998;9.116;2023-05-18T08:22:13;5.67;;;2.87;;
33327;SDS011;19692;52.998;9.116;2023-05-18T08:24:39;10.00;;;2.93;;
33327;SDS011;19692;52.998;9.116;2023-05-18T08:27:05;8.27;;;2.73;;
33327;SDS011;19692;52.998;9.116;2023-05-18T08:29:33;6.27;;;2.70;;
33327;SDS011;19692;52.998;9.116;2023-05-18T08:31:59;8.73;;;2.73;;
33327;SDS011;19692;52.998;9.116;2023-05-18T08:34:25;6.80;;;2.70;;
33327;SDS011;19692;52.998;9.116;2023-05-18T08:36:51;8.93;;;3.10;;
33327;SDS011;19692;52.998;9.116;2023-05-18T08:39:16;7.20;;;3.03;;
33327;SDS011;19692;52.998;9.116;2023-05-18T08:41:48;9.10;;;2.63;;
33327;SDS011;19692;52.998;9.116;2023-05-18T08:44:29;8.07;;;2.67;;
33327;SDS011;19692;52.998;9.116;2023-05-18T08:47:03;8.10;;;2.60;;
33327;SDS011;19692;52.998;9.116;2023-05-18T08:49:35;7.67;;;2.67;;
33327;SDS011;19692;52.998;9.116;2023-05-18T08:52:02;5.37;;;2.77;;
33327;SDS011;19692;52.998;9.116;2023-05-18T08:54:29;8.40;;;2.70;;
33327;SDS011;19692;52.998;9.116;2023-05-18T08:56:55;8.23;;;2.60;;
33327;SDS011;19692;52.998;9.116;2023-05-18T08:59:24;9.97;;;3.23;;
33327;SDS011;19692;52.998;9.116;2023-05-18T09:01:55;9.67;;;2.90;;
33327;SDS011;19692;52.998;9.116;2023-05-18T09:04:21;4.87;;;2.60;;
33327;SDS011;19692;52.998;9.116;2023-05-18T09:06:48;9.77;;;3.67;;
33327;SDS011;19692;52.998;9.116;2023-05-18T09:09:17;10.53;;;2.90;;
33327;SDS011;19692;52.998;9.116;2023-05-18T09:11:46;10.20;;;3.07;;
33327;SDS011;19692;52.998;9.116;2023-05-18T09:14:12;8.13;;;3.33;;
33327;SDS011;19692;52.998;9.116;2023-05-18T09:16:38;8.70;;;3.27;;
33327;SDS011;19692;52.998;9.116;2023-05-18T09:19:04;6.97;;;3.00;;
33327;SDS011;19692;52.998;9.116;2023-05-18T09:21:30;6.60;;;3.33;;
33327;SDS011;19692;52.998;9.116;2023-05-18T09:23:58;7.63;;;3.43;;
33327;SDS011;19692;52.998;9.116;2023-05-18T09:26:25;8.20;;;3.00;;
33327;SDS011;19692;52.998;9.116;2023-05-18T09:28:51;6.70;;;2.33;;
33327;SDS011;19692;52.998;9.116;2023-05-18T09:31:18;8.23;;;3.13;;
33327;SDS011;19692;52.998;9.116;2023-05-18T09:33:46;7.03;;;2.60;;
33327;SDS011;19692;52.998;9.116;2023-05-18T09:36:12;6.37;;;2.90;;
33327;SDS011;19692;52.998;9.116;2023-05-18T09:38:43;7.60;;;2.90;;
33327;SDS011;19692;52.998;9.116;2023-05-18T09:41:16;7.93;;;2.80;;
33327;SDS011;19692;52.998;9.116;2023-05-18T09:43:43;6.20;;;3.00;;
33327;SDS011;19692;52.998;9.116;2023-05-18T09:46:10;6.70;;;3.30;;
33327;SDS011;19692;52.998;9.116;2023-05-18T09:48:44;5.93;;;3.07;;
33327;SDS011;19692;52.998;9.116;2023-05-18T09:51:13;8.23;;;3.10;;
33327;SDS011;19692;52.998;9.116;2023-05-18T09:53:46;7.27;;;2.67;;
33327;SDS011;19692;52.998;9.116;2023-05-18T09:56:14;8.00;;;3.50;;
33327;SDS011;19692;52.998;9.116;2023-05-18T09:58:41;6.50;;;2.93;;
33327;SDS011;19692;52.998;9.116;2023-05-18T10:01:07;5.63;;;3.17;;
33327;SDS011;19692;52.998;9.116;2023-05-18T10:03:34;6.97;;;3.13;;
33327;SDS011;19692;52.998;9.116;2023-05-18T10:06:04;8.60;;;2.77;;
33327;SDS011;19692;52.998;9.116;2023-05-18T10:08:33;7.60;;;3.17;;
33327;SDS011;19692;52.998;9.116;2023-05-18T10:10:59;7.63;;;2.80;;
33327;SDS011;19692;52.998;9.116;2023-05-18T10:13:26;8.23;;;4.03;;
33327;SDS011;19692;52.998;9.116;2023-05-18T10:15:55;4.43;;;2.73;;
33327;SDS011;19692;52.998;9.116;2023-05-18T10:18:28;5.77;;;3.47;;
33327;SDS011;19692;52.998;9.116;2023-05-18T10:21:00;8.00;;;3.17;;
33327;SDS011;19692;52.998;9.116;2023-05-18T10:23:34;6.37;;;3.57;;
33327;SDS011;19692;52.998;9.116;2023-05-18T10:26:04;7.67;;;3.07;;
33327;SDS011;19692;52.998;9.116;2023-05-18T10:28:37;7.57;;;3.60;;
33327;SDS011;19692;52.998;9.116;2023-05-18T10:31:06;5.43;;;2.80;;
33327;SDS011;19692;52.998;9.116;2023-05-18T10:33:33;7.57;;;2.90;;
33327;SDS011;19692;52.998;9.116;2023-05-18T10:36:02;6.27;;;2.93;;
33327;SDS011;19692;52.998;9.116;2023-05-18T10:38:29;6.00;;;2.83;;
33327;SDS011;19692;52.998;9.116;2023-05-18T10:40:58;7.40;;;3.40;;
33327;SDS011;19692;52.998;9.116;2023-05-18T10:43:26;6.63;;;2.80;;
33327;SDS011;19692;52.998;9.116;2023-05-18T10:45:53;8.50;;;3.17;;
33327;SDS011;19692;52.998;9.116;2023-05-18T10:48:21;8.37;;;3.30;;
33327;SDS011;19692;52.998;9.116;2023-05-18T10:50:49;8.17;;;3.87;;
33327;SDS011;19692;52.998;9.116;2023-05-18T10:53:21;6.20;;;3.60;;
33327;SDS011;19692;52.998;9.116;2023-05-18T10:55:54;9.10;;;3.37;;
33327;SDS011;19692;52.998;9.116;2023-05-18T10:58:24;6.63;;;3.10;;
33327;SDS011;19692;52.998;9.116;2023-05-18T11:00:55;5.60;;;3.20;;
33327;SDS011;19692;52.998;9.116;2023-05-18T11:03:23;10.40;;;3.27;;
33327;SDS011;19692;52.998;9.116;2023-05-18T11:08:46;6.57;;;3.00;;
33327;SDS011;19692;52.998;9.116;2023-05-18T11:11:13;6.70;;;3.40;;
33327;SDS011;19692;52.998;9.116;2023-05-18T11:13:45;8.10;;;3.10;;
33327;SDS011;19692;52.998;9.116;2023-05-18T11:16:14;6.73;;;3.37;;
33327;SDS011;19692;52.998;9.116;2023-05-18T11:18:44;8.23;;;3.30;;
33327;SDS011;19692;52.998;9.116;2023-05-18T11:21:55;8.13;;;3.67;;
33327;SDS011;19692;52.998;9.116;2023-05-18T11:24:12;8.13;;;2.80;;
33327;SDS011;19692;52.998;9.116;2023-05-18T11:26:40;8.03;;;3.80;;
33327;SDS011;19692;52.998;9.116;2023-05-18T11:29:14;7.43;;;3.40;;
33327;SDS011;19692;52.998;9.116;2023-05-18T11:32:19;7.50;;;3.60;;
33327;SDS011;19692;52.998;9.116;2023-05-18T11:34:52;9.30;;;3.77;;
33327;SDS011;19692;52.998;9.116;2023-05-18T11:40:02;8.30;;;3.80;;
33327;SDS011;19692;52.998;9.116;2023-05-18T11:42:32;7.27;;;3.63;;
33327;SDS011;19692;52.998;9.116;2023-05-18T11:45:08;7.17;;;3.40;;
33327;SDS011;19692;52.998;9.116;2023-05-18T11:47:36;9.70;;;3.57;;
33327;SDS011;19692;52.998;9.116;2023-05-18T11:50:07;8.13;;;3.53;;
33327;SDS011;19692;52.998;9.116;2023-05-18T11:52:57;5.23;;;3.43;;
33327;SDS011;19692;52.998;9.116;2023-05-18T11:55:23;7.13;;;4.00;;
33327;SDS011;19692;52.998;9.116;2023-05-18T11:58:02;6.07;;;4.47;;
33327;SDS011;19692;52.998;9.116;2023-05-18T12:00:31;7.93;;;3.73;;
33327;SDS011;19692;52.998;9.116;2023-05-18T12:02:58;7.43;;;3.77;;
33327;SDS011;19692;52.998;9.116;2023-05-18T12:05:29;7.17;;;3.43;;
33327;SDS011;19692;52.998;9.116;2023-05-18T12:07:55;11.13;;;3.97;;
33327;SDS011;19692;52.998;9.116;2023-05-18T12:10:21;9.30;;;4.10;;
33327;SDS011;19692;52.998;9.116;2023-05-18T12:12:48;9.03;;;3.93;;
33327;SDS011;19692;52.998;9.116;2023-05-18T12:15:19;7.73;;;3.80;;
33327;SDS011;19692;52.998;9.116;2023-05-18T12:17:47;5.83;;;3.63;;
33327;SDS011;19692;52.998;9.116;2023-05-18T12:20:16;7.47;;;4.07;;
33327;SDS011;19692;52.998;9.116;2023-05-18T12:22:48;9.50;;;4.27;;
33327;SDS011;19692;52.998;9.116;2023-05-18T12:25:21;7.40;;;3.77;;
33327;SDS011;19692;52.998;9.116;2023-05-18T12:27:50;7.17;;;4.30;;
33327;SDS011;19692;52.998;9.116;2023-05-18T12:30:17;7.73;;;3.93;;
33327;SDS011;19692;52.998;9.116;2023-05-18T12:32:47;6.70;;;4.00;;
33327;SDS011;19692;52.998;9.116;2023-05-18T12:35:16;7.77;;;4.13;;
33327;SDS011;19692;52.998;9.116;2023-05-18T12:37:46;7.17;;;5.00;;
33327;SDS011;19692;52.998;9.116;2023-05-18T12:40:12;12.67;;;4.73;;
33327;SDS011;19692;52.998;9.116;2023-05-18T12:42:49;6.30;;;3.63;;
33327;SDS011;19692;52.998;9.116;2023-05-18T12:45:20;10.07;;;4.20;;
33327;SDS011;19692;52.998;9.116;2023-05-18T12:47:49;7.70;;;4.17;;
33327;SDS011;19692;52.998;9.116;2023-05-18T12:50:23;12.57;;;4.10;;
33327;SDS011;19692;52.998;9.116;2023-05-18T12:52:53;8.70;;;4.33;;
33327;SDS011;19692;52.998;9.116;2023-05-18T12:55:22;6.37;;;4.63;;
33327;SDS011;19692;52.998;9.116;2023-05-18T12:58:02;6.70;;;4.27;;
33327;SDS011;19692;52.998;9.116;2023-05-18T13:00:42;8.07;;;4.57;;
33327;SDS011;19692;52.998;9.116;2023-05-18T13:03:12;8.07;;;4.77;;
33327;SDS011;19692;52.998;9.116;2023-05-18T13:05:40;9.13;;;4.53;;
33327;SDS011;19692;52.998;9.116;2023-05-18T13:08:12;11.13;;;4.57;;
33327;SDS011;19692;52.998;9.116;2023-05-18T13:10:41;6.07;;;4.50;;
33327;SDS011;19692;52.998;9.116;2023-05-18T13:13:09;6.83;;;4.80;;
33327;SDS011;19692;52.998;9.116;2023-05-18T13:15:35;6.30;;;4.37;;
33327;SDS011;19692;52.998;9.116;2023-05-18T13:18:03;8.37;;;4.40;;
33327;SDS011;19692;52.998;9.116;2023-05-18T13:20:45;9.27;;;4.50;;
33327;SDS011;19692;52.998;9.116;2023-05-18T13:23:23;7.83;;;4.37;;
33327;SDS011;19692;52.998;9.116;2023-05-18T13:25:52;8.40;;;4.40;;
33327;SDS011;19692;52.998;9.116;2023-05-18T13:28:18;7.40;;;4.87;;
33327;SDS011;19692;52.998;9.116;2023-05-18T13:30:45;9.53;;;4.73;;
33327;SDS011;19692;52.998;9.116;2023-05-18T13:33:13;7.93;;;4.63;;
33327;SDS011;19692;52.998;9.116;2023-05-18T13:35:41;10.47;;;4.73;;
33327;SDS011;19692;52.998;9.116;2023-05-18T13:38:08;9.37;;;4.10;;
33327;SDS011;19692;52.998;9.116;2023-05-18T13:40:34;7.20;;;4.00;;
33327;SDS011;19692;52.998;9.116;2023-05-18T13:43:00;6.93;;;4.20;;
33327;SDS011;19692;52.998;9.116;2023-05-18T13:45:26;7.83;;;4.53;;
33327;SDS011;19692;52.998;9.116;2023-05-18T13:47:52;7.30;;;4.63;;
33327;SDS011;19692;52.998;9.116;2023-05-18T13:50:18;6.40;;;4.73;;
33327;SDS011;19692;52.998;9.116;2023-05-18T13:52:45;8.73;;;4.33;;
33327;SDS011;19692;52.998;9.116;2023-05-18T13:55:11;7.70;;;4.67;;
33327;SDS011;19692;52.998;9.116;2023-05-18T13:57:37;10.57;;;4.50;;
33327;SDS011;19692;52.998;9.116;2023-05-18T14:00:03;7.37;;;4.57;;
33327;SDS011;19692;52.998;9.116;2023-05-18T14:02:34;9.43;;;4.90;;
33327;SDS011;19692;52.998;9.116;2023-05-18T14:05:01;7.63;;;4.47;;
33327;SDS011;19692;52.998;9.116;2023-05-18T14:07:27;7.33;;;4.20;;
33327;SDS011;19692;52.998;9.116;2023-05-18T14:09:54;7.37;;;4.30;;
33327;SDS011;19692;52.998;9.116;2023-05-18T14:12:20;8.87;;;5.23;;
33327;SDS011;19692;52.998;9.116;2023-05-18T14:14:45;8.03;;;4.90;;
33327;SDS011;19692;52.998;9.116;2023-05-18T14:17:11;9.53;;;4.87;;
33327;SDS011;19692;52.998;9.116;2023-05-18T14:19:37;6.77;;;4.93;;
33327;SDS011;19692;52.998;9.116;2023-05-18T14:22:04;6.73;;;4.67;;
33327;SDS011;19692;52.998;9.116;2023-05-18T14:24:30;8.83;;;4.93;;
33327;SDS011;19692;52.998;9.116;2023-05-18T14:26:56;5.17;;;4.20;;
33327;SDS011;19692;52.998;9.116;2023-05-18T14:29:22;7.17;;;4.40;;
33327;SDS011;19692;52.998;9.116;2023-05-18T14:31:47;7.57;;;4.60;;
33327;SDS011;19692;52.998;9.116;2023-05-18T14:34:13;7.00;;;4.27;;
33327;SDS011;19692;52.998;9.116;2023-05-18T14:36:39;7.90;;;4.63;;
33327;SDS011;19692;52.998;9.116;2023-05-18T14:39:05;6.33;;;4.40;;
33327;SDS011;19692;52.998;9.116;2023-05-18T14:41:31;6.33;;;5.23;;
33327;SDS011;19692;52.998;9.116;2023-05-18T14:43:57;7.37;;;4.50;;
33327;SDS011;19692;52.998;9.116;2023-05-18T14:46:22;8.23;;;4.60;;
33327;SDS011;19692;52.998;9.116;2023-05-18T14:48:48;9.10;;;4.90;;
33327;SDS011;19692;52.998;9.116;2023-05-18T14:51:14;7.77;;;4.43;;
33327;SDS011;19692;52.998;9.116;2023-05-18T14:53:42;8.10;;;5.00;;
33327;SDS011;19692;52.998;9.116;2023-05-18T14:56:08;7.97;;;4.67;;
33327;SDS011;19692;52.998;9.116;2023-05-18T14:58:34;6.17;;;4.47;;
33327;SDS011;19692;52.998;9.116;2023-05-18T15:01:00;8.57;;;4.87;;
33327;SDS011;19692;52.998;9.116;2023-05-18T15:03:26;10.63;;;6.37;;
33327;SDS011;19692;52.998;9.116;2023-05-18T15:05:52;13.33;;;6.13;;
33327;SDS011;19692;52.998;9.116;2023-05-18T15:08:17;9.07;;;4.80;;
33327;SDS011;19692;52.998;9.116;2023-05-18T15:10:43;9.27;;;5.23;;